sensor_id;sensor_type;location;lat;lon;timestamp;P1;P2;P0
78063;PMS5003;67429;51.596;-3.264;2024-01-30T00:02:00;1;1;
78063;PMS5003;67429;51.596;-3.264;2024-01-30T00:04:25;1;1;
78063;PMS5003;67429;51.596;-3.264;2024-01-30T00:06:51;1;1;
78063;PMS5003;67429;51.596;-3.264;2024-01-30T00:09:17;1;1;
78063;PMS5003;67429;51.596;-3.264;2024-01-30T00:11:42;1;1;
78063;PMS5003;67429;51.596;-3.264;2024-01-30T00:14:08;1;1;
78063;PMS5003;67429;51.596;-3.264;2024-01-30T00:16:33;1;1;
78063;PMS5003;67429;51.596;-3.264;2024-01-30T00:18:59;2;2;
78063;PMS5003;67429;51.596;-3.264;2024-01-30T00:21:25;3;3;
78063;PMS5003;67429;51.596;-3.264;2024-01-30T00:23:50;3;3;
78063;PMS5003;67429;51.596;-3.264;2024-01-30T00:26:16;5;5;
78063;PMS5003;67429;51.596;-3.264;2024-01-30T00:28:41;5;5;
78063;PMS5003;67429;51.596;-3.264;2024-01-30T00:31:07;4;4;
78063;PMS5003;67429;51.596;-3.264;2024-01-30T00:33:32;5;5;
78063;PMS5003;67429;51.596;-3.264;2024-01-30T00:35:58;6;5;
78063;PMS5003;67429;51.596;-3.264;2024-01-30T00:38:24;4;4;
78063;PMS5003;67429;51.596;-3.264;2024-01-30T00:40:49;7;6;
78063;PMS5003;67429;51.596;-3.264;2024-01-30T00:43:15;4;4;
78063;PMS5003;67429;51.596;-3.264;2024-01-30T00:45:41;1;1;
78063;PMS5003;67429;51.596;-3.264;2024-01-30T00:48:06;0;0;
78063;PMS5003;67429;51.596;-3.264;2024-01-30T00:50:32;0;0;
78063;PMS5003;67429;51.596;-3.264;2024-01-30T00:52:58;0;0;
78063;PMS5003;67429;51.596;-3.264;2024-01-30T00:55:23;0;0;
78063;PMS5003;67429;51.596;-3.264;2024-01-30T00:57:49;0;0;
78063;PMS5003;67429;51.596;-3.264;2024-01-30T01:00:15;0;0;
78063;PMS5003;67429;51.596;-3.264;2024-01-30T01:02:40;0;0;
78063;PMS5003;67429;51.596;-3.264;2024-01-30T01:05:06;0;0;
78063;PMS5003;67429;51.596;-3.264;2024-01-30T01:07:32;0;0;
78063;PMS5003;67429;51.596;-3.264;2024-01-30T01:09:57;1;0;
78063;PMS5003;67429;51.596;-3.264;2024-01-30T01:12:23;0;0;
78063;PMS5003;67429;51.596;-3.264;2024-01-30T01:14:48;0;0;
78063;PMS5003;67429;51.596;-3.264;2024-01-30T01:17:14;0;0;
78063;PMS5003;67429;51.596;-3.264;2024-01-30T01:19:40;0;0;
78063;PMS5003;67429;51.596;-3.264;2024-01-30T01:22:05;0;0;
78063;PMS5003;67429;51.596;-3.264;2024-01-30T01:24:31;0;0;
78063;PMS5003;67429;51.596;-3.264;2024-01-30T01:26:57;0;0;
78063;PMS5003;67429;51.596;-3.264;2024-01-30T01:29:23;0;0;
78063;PMS5003;67429;51.596;-3.264;2024-01-30T01:31:48;0;0;
78063;PMS5003;67429;51.596;-3.264;2024-01-30T01:34:14;0;0;
78063;PMS5003;67429;51.596;-3.264;2024-01-30T01:36:40;0;0;
78063;PMS5003;67429;51.596;-3.264;2024-01-30T01:39:05;0;0;
78063;PMS5003;67429;51.596;-3.264;2024-01-30T01:41:31;0;0;
78063;PMS5003;67429;51.596;-3.264;2024-01-30T01:43:57;0;0;
78063;PMS5003;67429;51.596;-3.264;2024-01-30T01:46:22;0;0;
78063;PMS5003;67429;51.596;-3.264;2024-01-30T01:48:48;0;0;
78063;PMS5003;67429;51.596;-3.264;2024-01-30T01:51:14;0;0;
78063;PMS5003;67429;51.596;-3.264;2024-01-30T01:53:39;1;0;
78063;PMS5003;67429;51.596;-3.264;2024-01-30T01:56:05;0;0;
78063;PMS5003;67429;51.596;-3.264;2024-01-30T01:58:31;0;0;
78063;PMS5003;67429;51.596;-3.264;2024-01-30T02:00:56;0;0;
78063;PMS5003;67429;51.596;-3.264;2024-01-30T02:03:22;0;0;
78063;PMS5003;67429;51.596;-3.264;2024-01-30T02:05:48;0;0;
78063;PMS5003;67429;51.596;-3.264;2024-01-30T02:08:13;0;0;
78063;PMS5003;67429;51.596;-3.264;2024-01-30T02:10:39;0;0;
78063;PMS5003;67429;51.596;-3.264;2024-01-30T02:13:05;0;0;
78063;PMS5003;67429;51.596;-3.264;2024-01-30T02:15:30;1;0;
78063;PMS5003;67429;51.596;-3.264;2024-01-30T02:17:56;0;0;
78063;PMS5003;67429;51.596;-3.264;2024-01-30T02:20:22;0;0;
78063;PMS5003;67429;51.596;-3.264;2024-01-30T02:22:48;0;0;
78063;PMS5003;67429;51.596;-3.264;2024-01-30T02:25:13;0;0;
78063;PMS5003;67429;51.596;-3.264;2024-01-30T02:27:39;0;0;
78063;PMS5003;67429;51.596;-3.264;2024-01-30T02:30:05;0;0;
78063;PMS5003;67429;51.596;-3.264;2024-01-30T02:32:30;0;0;
78063;PMS5003;67429;51.596;-3.264;2024-01-30T02:34:56;0;0;
78063;PMS5003;67429;51.596;-3.264;2024-01-30T02:37:21;0;0;
78063;PMS5003;67429;51.596;-3.264;2024-01-30T02:39:47;0;0;
78063;PMS5003;67429;51.596;-3.264;2024-01-30T02:42:13;0;0;
78063;PMS5003;67429;51.596;-3.264;2024-01-30T02:44:38;0;0;
78063;PMS5003;67429;51.596;-3.264;2024-01-30T02:47:04;0;0;
78063;PMS5003;67429;51.596;-3.264;2024-01-30T02:49:30;0;0;
78063;PMS5003;67429;51.596;-3.264;2024-01-30T02:51:56;0;0;
78063;PMS5003;67429;51.596;-3.264;2024-01-30T02:54:21;0;0;
78063;PMS5003;67429;51.596;-3.264;2024-01-30T02:56:47;0;0;
78063;PMS5003;67429;51.596;-3.264;2024-01-30T02:59:13;0;0;
78063;PMS5003;67429;51.596;-3.264;2024-01-30T03:01:43;0;0;
78063;PMS5003;67429;51.596;-3.264;2024-01-30T03:04:04;0;0;
78063;PMS5003;67429;51.596;-3.264;2024-01-30T03:06:30;0;0;
78063;PMS5003;67429;51.596;-3.264;2024-01-30T03:08:55;0;0;
78063;PMS5003;67429;51.596;-3.264;2024-01-30T03:11:21;0;0;
78063;PMS5003;67429;51.596;-3.264;2024-01-30T03:13:46;0;0;
78063;PMS5003;67429;51.596;-3.264;2024-01-30T03:16:12;0;0;
78063;PMS5003;67429;51.596;-3.264;2024-01-30T03:18:38;0;0;
78063;PMS5003;67429;51.596;-3.264;2024-01-30T03:21:04;0;0;
78063;PMS5003;67429;51.596;-3.264;2024-01-30T03:23:29;0;0;
78063;PMS5003;67429;51.596;-3.264;2024-01-30T03:25:55;0;0;
78063;PMS5003;67429;51.596;-3.264;2024-01-30T03:28:21;0;0;
78063;PMS5003;67429;51.596;-3.264;2024-01-30T03:30:46;0;0;
78063;PMS5003;67429;51.596;-3.264;2024-01-30T03:33:12;0;0;
78063;PMS5003;67429;51.596;-3.264;2024-01-30T03:35:38;0;0;
78063;PMS5003;67429;51.596;-3.264;2024-01-30T03:38:03;0;0;
78063;PMS5003;67429;51.596;-3.264;2024-01-30T03:40:29;0;0;
78063;PMS5003;67429;51.596;-3.264;2024-01-30T03:42:55;0;0;
78063;PMS5003;67429;51.596;-3.264;2024-01-30T03:45:20;0;0;
78063;PMS5003;67429;51.596;-3.264;2024-01-30T03:47:46;0;0;
78063;PMS5003;67429;51.596;-3.264;2024-01-30T03:50:12;0;0;
78063;PMS5003;67429;51.596;-3.264;2024-01-30T03:52:38;0;0;
78063;PMS5003;67429;51.596;-3.264;2024-01-30T03:55:04;0;0;
78063;PMS5003;67429;51.596;-3.264;2024-01-30T03:57:29;0;0;
78063;PMS5003;67429;51.596;-3.264;2024-01-30T03:59:55;0;0;
78063;PMS5003;67429;51.596;-3.264;2024-01-30T04:02:21;0;0;
78063;PMS5003;67429;51.596;-3.264;2024-01-30T04:04:46;0;0;
78063;PMS5003;67429;51.596;-3.264;2024-01-30T04:07:12;0;0;
78063;PMS5003;67429;51.596;-3.264;2024-01-30T04:09:38;0;0;
78063;PMS5003;67429;51.596;-3.264;2024-01-30T04:12:03;0;0;
78063;PMS5003;67429;51.596;-3.264;2024-01-30T04:14:29;0;0;
78063;PMS5003;67429;51.596;-3.264;2024-01-30T04:16:55;0;0;
78063;PMS5003;67429;51.596;-3.264;2024-01-30T04:19:20;0;0;
78063;PMS5003;67429;51.596;-3.264;2024-01-30T04:21:46;0;0;
78063;PMS5003;67429;51.596;-3.264;2024-01-30T04:24:12;0;0;
78063;PMS5003;67429;51.596;-3.264;2024-01-30T04:26:37;0;0;
78063;PMS5003;67429;51.596;-3.264;2024-01-30T04:29:03;0;0;
78063;PMS5003;67429;51.596;-3.264;2024-01-30T04:31:29;0;0;
78063;PMS5003;67429;51.596;-3.264;2024-01-30T04:33:55;1;1;
78063;PMS5003;67429;51.596;-3.264;2024-01-30T04:36:20;0;0;
78063;PMS5003;67429;51.596;-3.264;2024-01-30T04:38:46;0;0;
78063;PMS5003;67429;51.596;-3.264;2024-01-30T04:41:12;0;0;
78063;PMS5003;67429;51.596;-3.264;2024-01-30T04:43:37;0;0;
78063;PMS5003;67429;51.596;-3.264;2024-01-30T04:46:04;0;0;
78063;PMS5003;67429;51.596;-3.264;2024-01-30T04:48:29;0;0;
78063;PMS5003;67429;51.596;-3.264;2024-01-30T04:50:54;0;0;
78063;PMS5003;67429;51.596;-3.264;2024-01-30T04:53:20;0;0;
78063;PMS5003;67429;51.596;-3.264;2024-01-30T04:55:46;0;0;
78063;PMS5003;67429;51.596;-3.264;2024-01-30T04:58:11;0;0;
78063;PMS5003;67429;51.596;-3.264;2024-01-30T05:00:37;0;0;
78063;PMS5003;67429;51.596;-3.264;2024-01-30T05:03:03;0;0;
78063;PMS5003;67429;51.596;-3.264;2024-01-30T05:05:29;0;0;
78063;PMS5003;67429;51.596;-3.264;2024-01-30T05:07:54;1;1;
78063;PMS5003;67429;51.596;-3.264;2024-01-30T05:10:20;0;0;
78063;PMS5003;67429;51.596;-3.264;2024-01-30T05:12:46;0;0;
78063;PMS5003;67429;51.596;-3.264;2024-01-30T05:15:12;0;0;
78063;PMS5003;67429;51.596;-3.264;2024-01-30T05:17:42;0;0;
78063;PMS5003;67429;51.596;-3.264;2024-01-30T05:20:03;0;0;
78063;PMS5003;67429;51.596;-3.264;2024-01-30T05:22:29;0;0;
78063;PMS5003;67429;51.596;-3.264;2024-01-30T05:24:54;0;0;
78063;PMS5003;67429;51.596;-3.264;2024-01-30T05:27:20;0;0;
78063;PMS5003;67429;51.596;-3.264;2024-01-30T05:29:46;0;0;
78063;PMS5003;67429;51.596;-3.264;2024-01-30T05:32:11;0;0;
78063;PMS5003;67429;51.596;-3.264;2024-01-30T05:34:37;0;0;
78063;PMS5003;67429;51.596;-3.264;2024-01-30T05:37:03;0;0;
78063;PMS5003;67429;51.596;-3.264;2024-01-30T05:39:28;1;0;
78063;PMS5003;67429;51.596;-3.264;2024-01-30T05:41:54;0;0;
78063;PMS5003;67429;51.596;-3.264;2024-01-30T05:44:20;0;0;
78063;PMS5003;67429;51.596;-3.264;2024-01-30T05:46:45;0;0;
78063;PMS5003;67429;51.596;-3.264;2024-01-30T05:49:11;0;0;
78063;PMS5003;67429;51.596;-3.264;2024-01-30T05:51:37;0;0;
78063;PMS5003;67429;51.596;-3.264;2024-01-30T05:54:02;1;1;
78063;PMS5003;67429;51.596;-3.264;2024-01-30T05:56:28;1;1;
78063;PMS5003;67429;51.596;-3.264;2024-01-30T05:58:54;1;1;
78063;PMS5003;67429;51.596;-3.264;2024-01-30T06:01:19;1;1;
78063;PMS5003;67429;51.596;-3.264;2024-01-30T06:03:45;2;2;
78063;PMS5003;67429;51.596;-3.264;2024-01-30T06:06:11;2;2;
78063;PMS5003;67429;51.596;-3.264;2024-01-30T06:08:37;2;2;
78063;PMS5003;67429;51.596;-3.264;2024-01-30T06:11:02;3;3;
78063;PMS5003;67429;51.596;-3.264;2024-01-30T06:13:28;2;2;
78063;PMS5003;67429;51.596;-3.264;2024-01-30T06:15:53;4;3;
78063;PMS5003;67429;51.596;-3.264;2024-01-30T06:18:19;6;4;
78063;PMS5003;67429;51.596;-3.264;2024-01-30T06:20:45;2;2;
78063;PMS5003;67429;51.596;-3.264;2024-01-30T06:23:11;2;2;
78063;PMS5003;67429;51.596;-3.264;2024-01-30T06:25:36;2;2;
78063;PMS5003;67429;51.596;-3.264;2024-01-30T06:28:02;2;2;
78063;PMS5003;67429;51.596;-3.264;2024-01-30T06:30:27;3;3;
78063;PMS5003;67429;51.596;-3.264;2024-01-30T06:32:53;5;5;
78063;PMS5003;67429;51.596;-3.264;2024-01-30T06:35:19;3;3;
78063;PMS5003;67429;51.596;-3.264;2024-01-30T06:37:44;6;4;
78063;PMS5003;67429;51.596;-3.264;2024-01-30T06:40:11;4;3;
78063;PMS5003;67429;51.596;-3.264;2024-01-30T06:42:36;4;4;
78063;PMS5003;67429;51.596;-3.264;2024-01-30T06:45:02;6;6;
78063;PMS5003;67429;51.596;-3.264;2024-01-30T06:47:27;6;6;
78063;PMS5003;67429;51.596;-3.264;2024-01-30T06:49:53;6;6;
78063;PMS5003;67429;51.596;-3.264;2024-01-30T06:52:19;4;4;
78063;PMS5003;67429;51.596;-3.264;2024-01-30T06:54:45;6;4;
78063;PMS5003;67429;51.596;-3.264;2024-01-30T06:57:10;6;6;
78063;PMS5003;67429;51.596;-3.264;2024-01-30T06:59:36;7;7;
78063;PMS5003;67429;51.596;-3.264;2024-01-30T07:02:01;6;6;
78063;PMS5003;67429;51.596;-3.264;2024-01-30T07:04:27;7;6;
78063;PMS5003;67429;51.596;-3.264;2024-01-30T07:06:52;4;4;
78063;PMS5003;67429;51.596;-3.264;2024-01-30T07:09:18;3;3;
78063;PMS5003;67429;51.596;-3.264;2024-01-30T07:11:44;6;4;
78063;PMS5003;67429;51.596;-3.264;2024-01-30T07:14:10;4;4;
78063;PMS5003;67429;51.596;-3.264;2024-01-30T07:16:35;7;6;
78063;PMS5003;67429;51.596;-3.264;2024-01-30T07:19:01;6;4;
78063;PMS5003;67429;51.596;-3.264;2024-01-30T07:21:27;4;3;
78063;PMS5003;67429;51.596;-3.264;2024-01-30T07:23:52;7;7;
78063;PMS5003;67429;51.596;-3.264;2024-01-30T07:26:18;4;3;
78063;PMS5003;67429;51.596;-3.264;2024-01-30T07:28:44;3;3;
78063;PMS5003;67429;51.596;-3.264;2024-01-30T07:31:10;4;4;
78063;PMS5003;67429;51.596;-3.264;2024-01-30T07:33:35;6;6;
78063;PMS5003;67429;51.596;-3.264;2024-01-30T07:36:01;7;6;
78063;PMS5003;67429;51.596;-3.264;2024-01-30T07:38:27;6;6;
78063;PMS5003;67429;51.596;-3.264;2024-01-30T07:40:52;6;4;
78063;PMS5003;67429;51.596;-3.264;2024-01-30T07:43:18;4;4;
78063;PMS5003;67429;51.596;-3.264;2024-01-30T07:45:44;6;6;
78063;PMS5003;67429;51.596;-3.264;2024-01-30T07:48:10;4;4;
78063;PMS5003;67429;51.596;-3.264;2024-01-30T07:50:35;4;4;
78063;PMS5003;67429;51.596;-3.264;2024-01-30T07:53:01;4;4;
78063;PMS5003;67429;51.596;-3.264;2024-01-30T07:55:27;3;3;
78063;PMS5003;67429;51.596;-3.264;2024-01-30T07:57:53;4;4;
78063;PMS5003;67429;51.596;-3.264;2024-01-30T08:00:18;2;2;
78063;PMS5003;67429;51.596;-3.264;2024-01-30T08:02:44;3;2;
78063;PMS5003;67429;51.596;-3.264;2024-01-30T08:05:10;1;1;
78063;PMS5003;67429;51.596;-3.264;2024-01-30T08:07:35;3;2;
78063;PMS5003;67429;51.596;-3.264;2024-01-30T08:10:01;2;2;
78063;PMS5003;67429;51.596;-3.264;2024-01-30T08:12:27;3;3;
78063;PMS5003;67429;51.596;-3.264;2024-01-30T08:14:53;2;2;
78063;PMS5003;67429;51.596;-3.264;2024-01-30T08:17:18;3;3;
78063;PMS5003;67429;51.596;-3.264;2024-01-30T08:19:44;2;2;
78063;PMS5003;67429;51.596;-3.264;2024-01-30T08:22:11;1;1;
78063;PMS5003;67429;51.596;-3.264;2024-01-30T08:24:36;2;2;
78063;PMS5003;67429;51.596;-3.264;2024-01-30T08:27:02;3;2;
78063;PMS5003;67429;51.596;-3.264;2024-01-30T08:29:27;2;2;
78063;PMS5003;67429;51.596;-3.264;2024-01-30T08:31:53;2;2;
78063;PMS5003;67429;51.596;-3.264;2024-01-30T08:34:18;2;2;
78063;PMS5003;67429;51.596;-3.264;2024-01-30T08:36:44;3;2;
78063;PMS5003;67429;51.596;-3.264;2024-01-30T08:39:10;2;1;
78063;PMS5003;67429;51.596;-3.264;2024-01-30T08:41:35;3;2;
78063;PMS5003;67429;51.596;-3.264;2024-01-30T08:44:01;2;2;
78063;PMS5003;67429;51.596;-3.264;2024-01-30T08:46:27;2;1;
78063;PMS5003;67429;51.596;-3.264;2024-01-30T08:48:52;1;1;
78063;PMS5003;67429;51.596;-3.264;2024-01-30T08:51:18;2;1;
78063;PMS5003;67429;51.596;-3.264;2024-01-30T08:53:44;0;0;
78063;PMS5003;67429;51.596;-3.264;2024-01-30T08:56:09;1;1;
78063;PMS5003;67429;51.596;-3.264;2024-01-30T08:58:35;2;2;
78063;PMS5003;67429;51.596;-3.264;2024-01-30T09:01:01;2;2;
78063;PMS5003;67429;51.596;-3.264;2024-01-30T09:03:26;2;2;
78063;PMS5003;67429;51.596;-3.264;2024-01-30T09:05:52;16;15;
78063;PMS5003;67429;51.596;-3.264;2024-01-30T09:08:18;7;7;
78063;PMS5003;67429;51.596;-3.264;2024-01-30T09:10:43;7;7;
78063;PMS5003;67429;51.596;-3.264;2024-01-30T09:13:09;6;4;
78063;PMS5003;67429;51.596;-3.264;2024-01-30T09:15:35;4;3;
78063;PMS5003;67429;51.596;-3.264;2024-01-30T09:18:01;2;2;
78063;PMS5003;67429;51.596;-3.264;2024-01-30T09:20:26;1;1;
78063;PMS5003;67429;51.596;-3.264;2024-01-30T09:22:52;3;3;
78063;PMS5003;67429;51.596;-3.264;2024-01-30T09:25:18;2;2;
78063;PMS5003;67429;51.596;-3.264;2024-01-30T09:27:44;4;4;
78063;PMS5003;67429;51.596;-3.264;2024-01-30T09:30:09;4;4;
78063;PMS5003;67429;51.596;-3.264;2024-01-30T09:32:35;3;3;
78063;PMS5003;67429;51.596;-3.264;2024-01-30T09:35:01;7;7;
78063;PMS5003;67429;51.596;-3.264;2024-01-30T09:37:26;3;3;
78063;PMS5003;67429;51.596;-3.264;2024-01-30T09:39:52;6;6;
78063;PMS5003;67429;51.596;-3.264;2024-01-30T09:42:20;8;7;
78063;PMS5003;67429;51.596;-3.264;2024-01-30T09:44:44;3;3;
78063;PMS5003;67429;51.596;-3.264;2024-01-30T09:47:09;4;4;
78063;PMS5003;67429;51.596;-3.264;2024-01-30T09:49:35;8;8;
78063;PMS5003;67429;51.596;-3.264;2024-01-30T09:52:01;3;3;
78063;PMS5003;67429;51.596;-3.264;2024-01-30T09:54:28;2;2;
78063;PMS5003;67429;51.596;-3.264;2024-01-30T09:56:52;4;4;
78063;PMS5003;67429;51.596;-3.264;2024-01-30T09:59:18;4;4;
78063;PMS5003;67429;51.596;-3.264;2024-01-30T10:01:44;3;3;
78063;PMS5003;67429;51.596;-3.264;2024-01-30T10:04:09;5;5;
78063;PMS5003;67429;51.596;-3.264;2024-01-30T10:06:35;8;7;
78063;PMS5003;67429;51.596;-3.264;2024-01-30T10:09:01;8;8;
78063;PMS5003;67429;51.596;-3.264;2024-01-30T10:11:26;4;3;
78063;PMS5003;67429;51.596;-3.264;2024-01-30T10:13:52;2;2;
78063;PMS5003;67429;51.596;-3.264;2024-01-30T10:16:18;1;1;
78063;PMS5003;67429;51.596;-3.264;2024-01-30T10:18:44;3;3;
78063;PMS5003;67429;51.596;-3.264;2024-01-30T10:21:09;3;3;
78063;PMS5003;67429;51.596;-3.264;2024-01-30T10:23:35;2;2;
78063;PMS5003;67429;51.596;-3.264;2024-01-30T10:26:02;3;3;
78063;PMS5003;67429;51.596;-3.264;2024-01-30T10:28:27;19;17;
78063;PMS5003;67429;51.596;-3.264;2024-01-30T10:33:17;19;19;
78063;PMS5003;67429;51.596;-3.264;2024-01-30T10:35:43;25;24;
78063;PMS5003;67429;51.596;-3.264;2024-01-30T10:38:08;15;15;
78063;PMS5003;67429;51.596;-3.264;2024-01-30T10:40:34;5;5;
78063;PMS5003;67429;51.596;-3.264;2024-01-30T10:43:00;4;4;
78063;PMS5003;67429;51.596;-3.264;2024-01-30T10:45:25;16;16;
78063;PMS5003;67429;51.596;-3.264;2024-01-30T10:47:52;8;8;
78063;PMS5003;67429;51.596;-3.264;2024-01-30T10:50:16;9;8;
78063;PMS5003;67429;51.596;-3.264;2024-01-30T10:52:42;5;4;
78063;PMS5003;67429;51.596;-3.264;2024-01-30T10:55:07;15;14;
78063;PMS5003;67429;51.596;-3.264;2024-01-30T10:57:33;27;24;
78063;PMS5003;67429;51.596;-3.264;2024-01-30T10:59:59;39;36;
78063;PMS5003;67429;51.596;-3.264;2024-01-30T11:02:24;42;39;
78063;PMS5003;67429;51.596;-3.264;2024-01-30T11:04:54;43;40;
78063;PMS5003;67429;51.596;-3.264;2024-01-30T11:07:15;26;26;
78063;PMS5003;67429;51.596;-3.264;2024-01-30T11:09:47;28;27;
78063;PMS5003;67429;51.596;-3.264;2024-01-30T11:12:06;18;16;
78063;PMS5003;67429;51.596;-3.264;2024-01-30T11:14:31;14;14;
78063;PMS5003;67429;51.596;-3.264;2024-01-30T11:16:57;18;18;
78063;PMS5003;67429;51.596;-3.264;2024-01-30T11:19:23;21;20;
78063;PMS5003;67429;51.596;-3.264;2024-01-30T11:21:50;14;12;
78063;PMS5003;67429;51.596;-3.264;2024-01-30T11:24:15;11;11;
78063;PMS5003;67429;51.596;-3.264;2024-01-30T11:26:42;17;17;
78063;PMS5003;67429;51.596;-3.264;2024-01-30T11:29:07;4;4;
78063;PMS5003;67429;51.596;-3.264;2024-01-30T11:31:32;16;16;
78063;PMS5003;67429;51.596;-3.264;2024-01-30T11:33:57;11;11;
78063;PMS5003;67429;51.596;-3.264;2024-01-30T11:36:25;8;7;
78063;PMS5003;67429;51.596;-3.264;2024-01-30T11:38:49;18;18;
78063;PMS5003;67429;51.596;-3.264;2024-01-30T11:41:15;17;17;
78063;PMS5003;67429;51.596;-3.264;2024-01-30T11:43:40;17;16;
78063;PMS5003;67429;51.596;-3.264;2024-01-30T11:46:06;4;4;
78063;PMS5003;67429;51.596;-3.264;2024-01-30T11:48:32;4;4;
78063;PMS5003;67429;51.596;-3.264;2024-01-30T11:50:57;4;3;
78063;PMS5003;67429;51.596;-3.264;2024-01-30T11:53:23;9;9;
78063;PMS5003;67429;51.596;-3.264;2024-01-30T11:55:50;11;11;
78063;PMS5003;67429;51.596;-3.264;2024-01-30T11:58:14;9;9;
78063;PMS5003;67429;51.596;-3.264;2024-01-30T12:00:40;3;2;
78063;PMS5003;67429;51.596;-3.264;2024-01-30T12:03:06;2;2;
78063;PMS5003;67429;51.596;-3.264;2024-01-30T12:05:31;4;4;
78063;PMS5003;67429;51.596;-3.264;2024-01-30T12:07:57;2;2;
78063;PMS5003;67429;51.596;-3.264;2024-01-30T12:10:23;2;1;
78063;PMS5003;67429;51.596;-3.264;2024-01-30T12:12:49;1;1;
78063;PMS5003;67429;51.596;-3.264;2024-01-30T12:15:14;3;3;
78063;PMS5003;67429;51.596;-3.264;2024-01-30T12:17:40;2;2;
78063;PMS5003;67429;51.596;-3.264;2024-01-30T12:20:06;3;2;
78063;PMS5003;67429;51.596;-3.264;2024-01-30T12:22:32;4;4;
78063;PMS5003;67429;51.596;-3.264;2024-01-30T12:24:57;6;6;
78063;PMS5003;67429;51.596;-3.264;2024-01-30T12:27:23;9;8;
78063;PMS5003;67429;51.596;-3.264;2024-01-30T12:29:48;6;6;
78063;PMS5003;67429;51.596;-3.264;2024-01-30T12:32:15;8;8;
78063;PMS5003;67429;51.596;-3.264;2024-01-30T12:34:40;10;10;
78063;PMS5003;67429;51.596;-3.264;2024-01-30T12:37:05;5;5;
78063;PMS5003;67429;51.596;-3.264;2024-01-30T12:39:31;7;7;
78063;PMS5003;67429;51.596;-3.264;2024-01-30T12:41:57;5;5;
78063;PMS5003;67429;51.596;-3.264;2024-01-30T12:44:22;4;3;
78063;PMS5003;67429;51.596;-3.264;2024-01-30T12:46:48;5;4;
78063;PMS5003;67429;51.596;-3.264;2024-01-30T12:49:14;5;4;
78063;PMS5003;67429;51.596;-3.264;2024-01-30T12:51:39;4;4;
78063;PMS5003;67429;51.596;-3.264;2024-01-30T12:54:05;4;4;
78063;PMS5003;67429;51.596;-3.264;2024-01-30T12:56:31;3;2;
78063;PMS5003;67429;51.596;-3.264;2024-01-30T12:58:56;2;2;
78063;PMS5003;67429;51.596;-3.264;2024-01-30T13:01:22;2;2;
78063;PMS5003;67429;51.596;-3.264;2024-01-30T13:03:48;5;5;
78063;PMS5003;67429;51.596;-3.264;2024-01-30T13:06:13;6;6;
78063;PMS5003;67429;51.596;-3.264;2024-01-30T13:08:39;3;3;
78063;PMS5003;67429;51.596;-3.264;2024-01-30T13:11:04;3;2;
78063;PMS5003;67429;51.596;-3.264;2024-01-30T13:13:30;2;2;
78063;PMS5003;67429;51.596;-3.264;2024-01-30T13:15:56;3;3;
78063;PMS5003;67429;51.596;-3.264;2024-01-30T13:18:22;2;2;
78063;PMS5003;67429;51.596;-3.264;2024-01-30T13:20:47;2;2;
78063;PMS5003;67429;51.596;-3.264;2024-01-30T13:23:13;2;2;
78063;PMS5003;67429;51.596;-3.264;2024-01-30T13:25:39;4;3;
78063;PMS5003;67429;51.596;-3.264;2024-01-30T13:28:04;3;3;
78063;PMS5003;67429;51.596;-3.264;2024-01-30T13:30:30;2;1;
78063;PMS5003;67429;51.596;-3.264;2024-01-30T13:32:55;2;2;
78063;PMS5003;67429;51.596;-3.264;2024-01-30T13:35:21;5;5;
78063;PMS5003;67429;51.596;-3.264;2024-01-30T13:37:47;6;6;
78063;PMS5003;67429;51.596;-3.264;2024-01-30T13:40:12;4;4;
78063;PMS5003;67429;51.596;-3.264;2024-01-30T13:42:38;8;8;
78063;PMS5003;67429;51.596;-3.264;2024-01-30T13:45:04;6;6;
78063;PMS5003;67429;51.596;-3.264;2024-01-30T13:47:29;3;3;
78063;PMS5003;67429;51.596;-3.264;2024-01-30T13:49:55;5;5;
78063;PMS5003;67429;51.596;-3.264;2024-01-30T13:52:22;5;4;
78063;PMS5003;67429;51.596;-3.264;2024-01-30T13:54:46;5;5;
78063;PMS5003;67429;51.596;-3.264;2024-01-30T13:57:12;19;17;
78063;PMS5003;67429;51.596;-3.264;2024-01-30T13:59:37;29;26;
78063;PMS5003;67429;51.596;-3.264;2024-01-30T14:02:03;26;25;
78063;PMS5003;67429;51.596;-3.264;2024-01-30T14:04:28;36;33;
78063;PMS5003;67429;51.596;-3.264;2024-01-30T14:06:54;12;12;
78063;PMS5003;67429;51.596;-3.264;2024-01-30T14:09:20;7;7;
78063;PMS5003;67429;51.596;-3.264;2024-01-30T14:11:44;12;12;
78063;PMS5003;67429;51.596;-3.264;2024-01-30T14:14:10;10;9;
78063;PMS5003;67429;51.596;-3.264;2024-01-30T14:16:37;11;11;
78063;PMS5003;67429;51.596;-3.264;2024-01-30T14:19:01;8;8;
78063;PMS5003;67429;51.596;-3.264;2024-01-30T14:21:28;12;10;
78063;PMS5003;67429;51.596;-3.264;2024-01-30T14:23:53;12;11;
78063;PMS5003;67429;51.596;-3.264;2024-01-30T14:26:18;9;9;
78063;PMS5003;67429;51.596;-3.264;2024-01-30T14:28:44;17;17;
78063;PMS5003;67429;51.596;-3.264;2024-01-30T14:31:10;23;19;
78063;PMS5003;67429;51.596;-3.264;2024-01-30T14:33:36;12;11;
78063;PMS5003;67429;51.596;-3.264;2024-01-30T14:36:01;2;2;
78063;PMS5003;67429;51.596;-3.264;2024-01-30T14:38:28;1;1;
78063;PMS5003;67429;51.596;-3.264;2024-01-30T14:40:54;1;1;
78063;PMS5003;67429;51.596;-3.264;2024-01-30T14:43:18;6;5;
78063;PMS5003;67429;51.596;-3.264;2024-01-30T14:45:45;4;4;
78063;PMS5003;67429;51.596;-3.264;2024-01-30T14:48:09;2;2;
78063;PMS5003;67429;51.596;-3.264;2024-01-30T14:50:36;5;5;
78063;PMS5003;67429;51.596;-3.264;2024-01-30T14:53:02;1;1;
78063;PMS5003;67429;51.596;-3.264;2024-01-30T14:55:27;2;1;
78063;PMS5003;67429;51.596;-3.264;2024-01-30T14:57:54;2;2;
78063;PMS5003;67429;51.596;-3.264;2024-01-30T15:00:18;5;5;
78063;PMS5003;67429;51.596;-3.264;2024-01-30T15:02:45;10;10;
78063;PMS5003;67429;51.596;-3.264;2024-01-30T15:05:10;4;3;
78063;PMS5003;67429;51.596;-3.264;2024-01-30T15:07:35;7;7;
78063;PMS5003;67429;51.596;-3.264;2024-01-30T15:10:01;8;8;
78063;PMS5003;67429;51.596;-3.264;2024-01-30T15:12:26;10;10;
78063;PMS5003;67429;51.596;-3.264;2024-01-30T15:14:52;3;3;
78063;PMS5003;67429;51.596;-3.264;2024-01-30T15:17:18;4;4;
78063;PMS5003;67429;51.596;-3.264;2024-01-30T15:19:44;8;8;
78063;PMS5003;67429;51.596;-3.264;2024-01-30T15:22:09;14;14;
78063;PMS5003;67429;51.596;-3.264;2024-01-30T15:24:35;11;11;
78063;PMS5003;67429;51.596;-3.264;2024-01-30T15:27:01;11;11;
78063;PMS5003;67429;51.596;-3.264;2024-01-30T15:29:26;11;11;
78063;PMS5003;67429;51.596;-3.264;2024-01-30T15:31:54;3;3;
78063;PMS5003;67429;51.596;-3.264;2024-01-30T15:34:18;1;1;
78063;PMS5003;67429;51.596;-3.264;2024-01-30T15:36:45;4;4;
78063;PMS5003;67429;51.596;-3.264;2024-01-30T15:39:10;7;7;
78063;PMS5003;67429;51.596;-3.264;2024-01-30T15:41:36;4;2;
78063;PMS5003;67429;51.596;-3.264;2024-01-30T15:44:00;3;3;
78063;PMS5003;67429;51.596;-3.264;2024-01-30T15:46:26;10;10;
78063;PMS5003;67429;51.596;-3.264;2024-01-30T15:48:52;8;8;
78063;PMS5003;67429;51.596;-3.264;2024-01-30T15:51:17;15;15;
78063;PMS5003;67429;51.596;-3.264;2024-01-30T15:53:44;21;21;
78063;PMS5003;67429;51.596;-3.264;2024-01-30T15:56:10;18;18;
78063;PMS5003;67429;51.596;-3.264;2024-01-30T15:58:35;60;60;
78063;PMS5003;67429;51.596;-3.264;2024-01-30T16:01:01;46;46;
78063;PMS5003;67429;51.596;-3.264;2024-01-30T16:03:27;48;48;
78063;PMS5003;67429;51.596;-3.264;2024-01-30T16:05:52;26;26;
78063;PMS5003;67429;51.596;-3.264;2024-01-30T16:08:19;27;27;
78063;PMS5003;67429;51.596;-3.264;2024-01-30T16:10:44;16;16;
78063;PMS5003;67429;51.596;-3.264;2024-01-30T16:13:09;13;13;
78063;PMS5003;67429;51.596;-3.264;2024-01-30T16:15:37;9;9;
78063;PMS5003;67429;51.596;-3.264;2024-01-30T16:18:01;10;10;
78063;PMS5003;67429;51.596;-3.264;2024-01-30T16:20:27;36;36;